Time;durP1;ratioP1;P1;durP2;ratioP2;P2;SDS_P1;SDS_P2;PMS_P1;PMS_P2;Temp;Humidity;BMP_temperature;BMP_pressure;BME280_temperature;BME280_humidity;BME280_pressure;Samples;Min_cycle;Max_cycle;Signal;HPM_P1;HPM_P2
2020/12/30 00:01:05;;;;;;;5.00;4.33;;;5.50;39.40;;;;;;10455140;28;20232;-74
2020/12/30 00:06:07;;;;;;;5.33;4.80;;;5.60;39.40;;;;;;10460211;28;20751;-74
2020/12/30 00:11:10;;;;;;;5.50;4.20;;;5.60;39.10;;;;;;10448361;28;20304;-74
2020/12/30 00:16:12;;;;;;;6.57;4.63;;;5.60;39.10;;;;;;10462500;28;20221;-74
2020/12/30 00:21:14;;;;;;;5.00;4.50;;;5.50;38.90;;;;;;10448053;28;20790;-74
2020/12/30 00:26:20;;;;;;;5.13;4.73;;;5.50;38.80;;;;;;10457385;28;20220;-74
2020/12/30 00:31:30;;;;;;;4.40;4.00;;;5.50;39.00;;;;;;10451393;28;20256;-75
2020/12/30 00:36:38;;;;;;;5.63;4.87;;;5.40;38.90;;;;;;10456786;28;20232;-74
2020/12/30 00:41:41;;;;;;;5.03;4.17;;;5.40;39.00;;;;;;10449787;28;20235;-74
2020/12/30 00:46:43;;;;;;;4.57;3.53;;;5.40;38.70;;;;;;10452656;28;20233;-74
2020/12/30 00:51:49;;;;;;;4.93;3.93;;;5.30;38.50;;;;;;10450090;28;20243;-74
2020/12/30 00:56:52;;;;;;;4.37;3.97;;;5.20;38.70;;;;;;10456149;28;20597;-74
2020/12/30 01:01:55;;;;;;;4.57;4.17;;;5.10;38.50;;;;;;10455649;28;20733;-74
2020/12/30 01:06:57;;;;;;;4.60;4.20;;;4.90;38.70;;;;;;10464867;28;20243;-74
2020/12/30 01:12:04;;;;;;;4.20;3.90;;;4.70;38.90;;;;;;10457418;28;20743;-74
2020/12/30 01:17:07;;;;;;;4.80;4.30;;;4.70;39.40;;;;;;10460080;28;20311;-74
2020/12/30 01:22:09;;;;;;;4.73;3.93;;;4.70;39.10;;;;;;10457769;28;20233;-74
2020/12/30 01:27:12;;;;;;;4.30;3.90;;;4.70;39.10;;;;;;10462313;28;20233;-74
2020/12/30 01:32:15;;;;;;;4.33;3.93;;;4.70;38.90;;;;;;10463898;28;20320;-74
2020/12/30 01:37:17;;;;;;;4.90;3.97;;;4.60;38.60;;;;;;10454837;28;20308;-74
2020/12/30 01:42:20;;;;;;;5.23;4.07;;;4.60;38.70;;;;;;10457323;28;20243;-74
2020/12/30 01:47:22;;;;;;;4.47;4.07;;;4.50;38.90;;;;;;10460319;28;20745;-74
2020/12/30 01:52:25;;;;;;;5.63;3.93;;;4.50;38.90;;;;;;10453810;28;20225;-74
2020/12/30 01:57:29;;;;;;;4.27;3.40;;;4.50;38.80;;;;;;10459737;28;20261;-74
2020/12/30 02:02:32;;;;;;;3.70;3.17;;;4.40;38.80;;;;;;10462004;28;20252;-74
2020/12/30 02:07:36;;;;;;;4.60;3.90;;;4.40;38.90;;;;;;10460538;28;20229;-74
2020/12/30 02:12:40;;;;;;;4.10;3.70;;;4.40;39.70;;;;;;10452544;28;20228;-74
2020/12/30 02:17:42;;;;;;;4.20;3.63;;;4.40;38.90;;;;;;10465678;28;20769;-74
2020/12/30 02:22:49;;;;;;;3.50;3.20;;;4.40;38.90;;;;;;10465656;28;20303;-74
2020/12/30 02:27:52;;;;;;;5.03;3.63;;;4.40;38.90;;;;;;10455916;28;20221;-74
2020/12/30 02:32:54;;;;;;;3.70;3.40;;;4.40;38.80;;;;;;10456845;28;20226;-74
2020/12/30 02:37:56;;;;;;;3.87;3.50;;;4.30;38.80;;;;;;10453794;28;20705;-74
2020/12/30 02:42:59;;;;;;;3.77;3.47;;;4.50;38.90;;;;;;10455424;28;20221;-74
2020/12/30 02:48:01;;;;;;;3.40;3.10;;;4.30;38.70;;;;;;10456460;28;20685;-73
2020/12/30 02:53:03;;;;;;;3.13;2.83;;;4.20;38.50;;;;;;10451753;28;20221;-74
2020/12/30 02:58:06;;;;;;;3.27;2.97;;;4.10;38.50;;;;;;10457377;28;20239;-74
2020/12/30 03:03:09;;;;;;;3.70;3.30;;;4.10;38.70;;;;;;10454997;28;20224;-75
2020/12/30 03:08:11;;;;;;;6.53;3.13;;;4.10;38.70;;;;;;10455256;28;20788;-75
2020/12/30 03:13:15;;;;;;;3.47;3.07;;;4.10;38.80;;;;;;10466775;28;20256;-75
2020/12/30 03:18:17;;;;;;;4.00;3.30;;;4.00;38.80;;;;;;10452777;28;20220;-75
2020/12/30 03:23:19;;;;;;;3.50;3.17;;;4.10;38.70;;;;;;10452941;28;20221;-75
2020/12/30 03:28:22;;;;;;;3.57;3.03;;;4.00;38.70;;;;;;10452370;28;20233;-75
2020/12/30 03:33:24;;;;;;;3.50;3.20;;;3.90;38.70;;;;;;10460935;28;20225;-75
2020/12/30 03:38:26;;;;;;;3.17;2.87;;;3.90;38.70;;;;;;10452422;28;20235;-75
2020/12/30 03:43:29;;;;;;;3.37;3.07;;;3.90;38.70;;;;;;10458880;28;20600;-75
2020/12/30 03:48:31;;;;;;;3.13;2.83;;;3.90;38.60;;;;;;10456655;28;20229;-75
2020/12/30 03:53:34;;;;;;;3.13;2.83;;;3.80;38.60;;;;;;10448969;28;20229;-75
2020/12/30 03:58:37;;;;;;;3.90;2.87;;;3.80;38.60;;;;;;10463322;28;20243;-75
2020/12/30 04:03:48;;;;;;;3.13;2.83;;;3.70;38.60;;;;;;10451956;28;20256;-75
2020/12/30 04:08:51;;;;;;;3.17;2.90;;;3.70;38.60;;;;;;10465613;28;20232;-75
2020/12/30 04:13:54;;;;;;;2.83;2.63;;;3.70;38.70;;;;;;10453883;28;20311;-75
2020/12/30 04:18:56;;;;;;;3.07;2.40;;;3.80;38.70;;;;;;10456118;28;20233;-75
2020/12/30 04:23:58;;;;;;;2.77;2.57;;;3.70;38.70;;;;;;10464875;28;20459;-75
2020/12/30 04:29:01;;;;;;;3.60;2.70;;;3.60;38.50;;;;;;10447822;28;20671;-75
2020/12/30 04:34:03;;;;;;;3.07;2.87;;;3.50;38.50;;;;;;10449763;28;20243;-74
2020/12/30 04:39:06;;;;;;;3.93;3.03;;;3.60;38.70;;;;;;10452182;28;20299;-74
2020/12/30 04:44:09;;;;;;;3.60;2.30;;;3.50;38.70;;;;;;10456010;28;20224;-74
2020/12/30 04:49:12;;;;;;;2.80;2.60;;;3.40;38.70;;;;;;10451373;28;20302;-75
2020/12/30 04:54:15;;;;;;;3.90;2.60;;;3.50;38.60;;;;;;10447456;28;20637;-75
2020/12/30 04:59:22;;;;;;;3.07;2.63;;;3.40;38.60;;;;;;10454986;28;20231;-75
2020/12/30 05:04:26;;;;;;;3.17;2.90;;;3.40;38.80;;;;;;10449813;28;20231;-75
2020/12/30 05:09:29;;;;;;;3.00;2.73;;;3.40;38.60;;;;;;10456785;28;20224;-75
2020/12/30 05:14:32;;;;;;;3.57;2.93;;;3.30;38.30;;;;;;10453769;28;20228;-75
2020/12/30 05:19:34;;;;;;;5.37;2.67;;;3.30;38.40;;;;;;10454650;28;20217;-75
2020/12/30 05:24:36;;;;;;;2.43;2.13;;;3.20;38.40;;;;;;10452685;28;20255;-75
2020/12/30 05:29:44;;;;;;;2.93;2.60;;;3.20;38.70;;;;;;10451712;28;20231;-75
2020/12/30 05:34:47;;;;;;;3.00;2.70;;;3.20;38.80;;;;;;10454149;28;20237;-74
2020/12/30 05:39:49;;;;;;;2.70;2.50;;;3.10;38.50;;;;;;10461773;28;20229;-75
2020/12/30 05:44:55;;;;;;;2.47;2.17;;;3.10;38.70;;;;;;10454783;28;20232;-74
2020/12/30 05:49:58;;;;;;;3.00;2.67;;;3.10;38.70;;;;;;10458148;28;20244;-75
2020/12/30 05:55:02;;;;;;;3.27;2.70;;;3.10;38.60;;;;;;10457691;28;20225;-75
2020/12/30 06:00:08;;;;;;;2.87;2.57;;;3.00;38.50;;;;;;10457345;28;20239;-74
2020/12/30 06:05:13;;;;;;;3.53;3.23;;;3.20;38.70;;;;;;10462673;28;20260;-74
2020/12/30 06:10:18;;;;;;;2.90;2.70;;;3.00;38.50;;;;;;10453336;28;20248;-75
2020/12/30 06:15:23;;;;;;;2.87;2.63;;;2.90;38.50;;;;;;10466703;28;20221;-74
2020/12/30 06:20:31;;;;;;;3.93;2.97;;;3.00;38.60;;;;;;10454440;28;20248;-74
2020/12/30 06:25:34;;;;;;;3.60;3.30;;;2.90;38.40;;;;;;10453864;28;20778;-74
2020/12/30 06:30:38;;;;;;;3.07;2.83;;;3.00;38.80;;;;;;10456857;28;20609;-75
2020/12/30 06:35:42;;;;;;;4.30;3.57;;;2.90;38.70;;;;;;10458917;28;20241;-75
2020/12/30 06:40:52;;;;;;;4.83;4.40;;;2.80;38.70;;;;;;10466720;28;20283;-74
2020/12/30 06:45:55;;;;;;;5.10;4.53;;;2.80;38.70;;;;;;10456299;28;20236;-75
2020/12/30 06:51:16;;;;;;;4.03;3.63;;;2.80;38.50;;;;;;10454348;28;20235;-74
2020/12/30 06:56:36;;;;;;;5.27;4.60;;;2.80;38.70;;;;;;10456343;28;20233;-74
2020/12/30 07:01:54;;;;;;;5.10;4.27;;;2.70;38.50;;;;;;10451273;28;20708;-74
2020/12/30 07:06:57;;;;;;;5.20;4.07;;;2.70;38.60;;;;;;10456370;28;20727;-75
2020/12/30 07:12:00;;;;;;;5.30;4.40;;;2.70;39.20;;;;;;10450723;28;20343;-75
2020/12/30 07:17:04;;;;;;;7.77;5.00;;;2.60;38.40;;;;;;10455887;28;20554;-74
2020/12/30 07:22:07;;;;;;;6.90;4.83;;;2.60;38.50;;;;;;10454861;28;20304;-74
2020/12/30 07:27:11;;;;;;;9.13;5.93;;;2.60;38.40;;;;;;10464105;28;20320;-74
2020/12/30 07:32:16;;;;;;;6.80;5.13;;;2.70;38.90;;;;;;10453338;28;20308;-74
2020/12/30 07:37:18;;;;;;;5.97;4.43;;;2.60;38.80;;;;;;10450861;28;20316;-74
2020/12/30 07:42:23;;;;;;;7.43;4.80;;;2.60;38.90;;;;;;10458220;28;20232;-74
2020/12/30 07:47:27;;;;;;;4.07;3.67;;;2.60;39.10;;;;;;10458104;28;20229;-74
2020/12/30 07:52:29;;;;;;;7.30;4.87;;;2.70;39.40;;;;;;10449027;28;20232;-74
2020/12/30 07:57:33;;;;;;;4.67;4.10;;;2.70;39.40;;;;;;10457209;28;20728;-74
2020/12/30 08:02:36;;;;;;;6.97;4.30;;;2.80;39.60;;;;;;10451196;28;20228;-69
2020/12/30 08:07:39;;;;;;;5.73;4.60;;;2.90;39.90;;;;;;10456183;28;20604;-75
2020/12/30 08:12:41;;;;;;;5.97;5.10;;;2.90;40.00;;;;;;10449889;28;20238;-74
2020/12/30 08:17:44;;;;;;;12.10;8.60;;;3.00;39.90;;;;;;10448473;28;20322;-74
2020/12/30 08:22:46;;;;;;;7.27;5.70;;;3.10;40.10;;;;;;10456818;28;20239;-74
2020/12/30 08:27:49;;;;;;;6.77;6.07;;;3.30;40.10;;;;;;10453219;28;20232;-75
2020/12/30 08:33:01;;;;;;;6.73;6.07;;;3.30;40.30;;;;;;10457175;28;20224;-74
2020/12/30 08:38:10;;;;;;;7.10;6.30;;;3.30;40.90;;;;;;10457475;28;20217;-74
2020/12/30 08:43:33;;;;;;;7.13;6.43;;;3.40;40.90;;;;;;10450598;28;20717;-74
2020/12/30 08:48:46;;;;;;;8.23;7.43;;;3.50;41.50;;;;;;10452015;28;20580;-74
2020/12/30 08:53:48;;;;;;;8.67;7.77;;;3.70;41.70;;;;;;10451110;28;20666;-69
2020/12/30 08:58:52;;;;;;;29.03;17.73;;;3.60;40.80;;;;;;10450588;28;20717;-69
2020/12/30 09:04:08;;;;;;;15.60;12.40;;;3.70;41.00;;;;;;10451984;28;20247;-69
2020/12/30 09:09:12;;;;;;;7.30;6.53;;;3.80;42.10;;;;;;10454070;28;20224;-68
2020/12/30 09:14:16;;;;;;;9.13;7.77;;;3.80;41.50;;;;;;10457209;28;20501;-69
2020/12/30 09:19:20;;;;;;;8.30;6.87;;;4.00;41.40;;;;;;10452167;28;20237;-68
2020/12/30 09:24:23;;;;;;;8.27;7.43;;;4.00;41.70;;;;;;10460678;28;20577;-68
2020/12/30 09:29:25;;;;;;;6.47;5.87;;;4.10;41.50;;;;;;10454792;28;20235;-68
2020/12/30 09:34:30;;;;;;;5.07;4.50;;;4.10;41.90;;;;;;10460634;28;20232;-68
2020/12/30 09:39:32;;;;;;;5.00;4.40;;;4.20;42.10;;;;;;10458096;28;20221;-67
2020/12/30 09:44:34;;;;;;;5.43;4.90;;;4.40;42.20;;;;;;10461822;28;20233;-67
2020/12/30 09:49:37;;;;;;;5.83;5.23;;;4.50;42.50;;;;;;10455421;28;20228;-67
2020/12/30 09:54:40;;;;;;;8.40;7.17;;;4.80;43.10;;;;;;10455489;28;20879;-67
2020/12/30 09:59:43;;;;;;;6.33;4.57;;;5.00;42.90;;;;;;10459469;28;20239;-68
2020/12/30 10:04:46;;;;;;;3.80;3.50;;;5.30;43.00;;;;;;10464175;28;20239;-67
2020/12/30 10:09:48;;;;;;;4.00;3.60;;;5.60;43.20;;;;;;10463676;28;20232;-68
2020/12/30 10:14:51;;;;;;;3.97;3.57;;;5.80;42.90;;;;;;10455911;28;20231;-67
2020/12/30 10:19:54;;;;;;;7.43;6.67;;;6.00;42.70;;;;;;10460826;28;20226;-68
2020/12/30 10:24:56;;;;;;;4.77;4.27;;;6.30;42.50;;;;;;10463168;28;20231;-67
2020/12/30 10:29:58;;;;;;;4.50;3.87;;;6.40;42.30;;;;;;10451737;28;20335;-67
2020/12/30 10:35:01;;;;;;;4.50;4.10;;;6.60;42.20;;;;;;10454945;28;20227;-67
2020/12/30 10:40:04;;;;;;;6.13;3.93;;;6.80;42.20;;;;;;10460310;28;20221;-68
2020/12/30 10:45:07;;;;;;;6.13;5.53;;;7.00;42.00;;;;;;10455605;28;20267;-68
2020/12/30 10:50:10;;;;;;;5.70;5.10;;;7.20;41.80;;;;;;10457510;28;20229;-68
2020/12/30 10:55:12;;;;;;;4.53;4.13;;;7.30;41.60;;;;;;10456423;28;20236;-68
2020/12/30 11:00:14;;;;;;;4.50;4.10;;;7.40;41.50;;;;;;10461056;28;20228;-68
2020/12/30 11:05:17;;;;;;;3.40;2.30;;;7.50;41.30;;;;;;10454235;28;20232;-68
2020/12/30 11:10:19;;;;;;;2.57;2.37;;;7.60;41.10;;;;;;10458113;28;20237;-68
2020/12/30 11:15:21;;;;;;;4.00;2.53;;;7.60;41.00;;;;;;10458689;28;20233;-68
2020/12/30 11:20:24;;;;;;;2.87;2.40;;;7.70;41.30;;;;;;10458683;28;20228;-68
2020/12/30 11:25:27;;;;;;;2.80;2.50;;;7.80;41.20;;;;;;10455223;28;20232;-68
2020/12/30 11:30:29;;;;;;;2.47;2.27;;;8.00;41.20;;;;;;10452216;28;20225;-67
2020/12/30 11:35:33;;;;;;;2.80;2.60;;;8.10;41.20;;;;;;10452160;28;20225;-68
2020/12/30 11:40:35;;;;;;;3.07;2.47;;;8.30;41.00;;;;;;10456351;28;20231;-67
2020/12/30 11:45:37;;;;;;;5.13;2.90;;;8.40;40.80;;;;;;10457853;28;20612;-68
2020/12/30 11:50:40;;;;;;;2.73;2.43;;;8.50;40.50;;;;;;10454171;28;20317;-68
2020/12/30 11:55:42;;;;;;;2.80;2.60;;;8.60;40.40;;;;;;10455480;28;20247;-68
2020/12/30 12:00:44;;;;;;;2.40;2.10;;;8.60;40.40;;;;;;10450251;28;20233;-73
2020/12/30 12:05:47;;;;;;;2.60;2.40;;;8.60;40.20;;;;;;10461584;28;20335;-73
2020/12/30 12:10:50;;;;;;;3.50;2.87;;;8.70;40.00;;;;;;10448354;28;20229;-74
2020/12/30 12:15:52;;;;;;;2.97;2.67;;;8.70;39.80;;;;;;10465128;28;20716;-73
2020/12/30 12:20:55;;;;;;;4.30;2.67;;;8.70;39.80;;;;;;10450343;28;20221;-73
2020/12/30 12:25:58;;;;;;;2.83;2.50;;;8.70;39.80;;;;;;10447954;28;20316;-73
2020/12/30 12:31:00;;;;;;;2.70;2.50;;;8.70;39.80;;;;;;10458711;28;20243;-73
2020/12/30 12:36:09;;;;;;;3.37;3.07;;;8.90;40.00;;;;;;10448296;28;20315;-72
2020/12/30 12:41:14;;;;;;;2.60;2.40;;;8.90;40.00;;;;;;10462428;28;20221;-73
2020/12/30 12:46:16;;;;;;;3.37;3.07;;;8.90;40.00;;;;;;10452070;28;20244;-74
2020/12/30 12:51:20;;;;;;;4.77;2.97;;;9.00;40.00;;;;;;10454399;28;20250;-73
2020/12/30 12:56:22;;;;;;;3.00;2.70;;;9.00;40.10;;;;;;10470076;28;20234;-68
2020/12/30 13:01:24;;;;;;;4.20;2.83;;;9.00;40.00;;;;;;10455831;28;20239;-68
2020/12/30 13:06:29;;;;;;;3.93;3.10;;;9.00;40.00;;;;;;10473807;28;20580;-68
2020/12/30 13:11:31;;;;;;;3.43;3.13;;;8.90;40.00;;;;;;10455622;28;20235;-68
2020/12/30 13:16:33;;;;;;;4.60;4.17;;;9.00;39.70;;;;;;10461356;28;20229;-68
2020/12/30 13:21:36;;;;;;;3.23;3.03;;;8.90;39.50;;;;;;10468157;28;20235;-68
2020/12/30 13:26:39;;;;;;;4.10;3.17;;;8.90;39.40;;;;;;10459331;28;20235;-68
2020/12/30 13:31:41;;;;;;;3.43;3.13;;;8.90;39.70;;;;;;10462584;28;20225;-68
2020/12/30 13:36:44;;;;;;;3.07;2.77;;;8.90;39.70;;;;;;10456878;28;20236;-68
2020/12/30 13:41:46;;;;;;;3.43;2.90;;;8.90;39.80;;;;;;10467034;28;20224;-68
2020/12/30 13:46:50;;;;;;;3.63;3.33;;;8.90;39.70;;;;;;10461973;28;20237;-69
2020/12/30 13:51:53;;;;;;;3.60;3.20;;;8.90;39.60;;;;;;10457786;28;20233;-68
2020/12/30 13:56:55;;;;;;;4.07;3.70;;;9.00;39.50;;;;;;10461235;28;20237;-68
2020/12/30 14:01:57;;;;;;;3.57;3.27;;;9.00;39.50;;;;;;10462937;28;20232;-69
2020/12/30 14:07:00;;;;;;;3.17;2.90;;;9.10;39.40;;;;;;10467797;28;20322;-68
2020/12/30 14:12:04;;;;;;;3.87;3.57;;;9.10;39.30;;;;;;10456899;28;20229;-69
2020/12/30 14:17:06;;;;;;;4.33;3.20;;;9.10;39.40;;;;;;10463195;28;20308;-69
2020/12/30 14:22:09;;;;;;;6.47;4.23;;;9.10;39.20;;;;;;10459088;28;20256;-69
2020/12/30 14:27:12;;;;;;;6.40;5.80;;;9.10;38.90;;;;;;10468575;28;20240;-69
2020/12/30 14:32:15;;;;;;;4.80;4.30;;;9.10;38.90;;;;;;10458814;28;20235;-69
2020/12/30 14:37:18;;;;;;;4.77;3.20;;;9.10;39.00;;;;;;10456848;28;20252;-69
2020/12/30 14:42:20;;;;;;;3.00;2.80;;;9.00;38.70;;;;;;10454627;28;20232;-69
2020/12/30 14:47:22;;;;;;;3.87;2.93;;;9.00;38.80;;;;;;10463554;28;20600;-68
2020/12/30 14:52:25;;;;;;;3.53;3.17;;;8.90;38.80;;;;;;10453513;28;20607;-69
2020/12/30 14:57:28;;;;;;;3.53;3.23;;;8.90;38.60;;;;;;10455300;28;20232;-68
2020/12/30 15:02:30;;;;;;;3.87;3.57;;;8.90;38.60;;;;;;10457708;28;20578;-68
2020/12/30 15:07:33;;;;;;;3.70;3.13;;;8.90;38.60;;;;;;10461853;28;20243;-68
2020/12/30 15:12:35;;;;;;;4.00;3.60;;;8.80;38.50;;;;;;10452783;28;20228;-69
2020/12/30 15:17:37;;;;;;;3.87;3.57;;;8.80;39.30;;;;;;10452044;28;20273;-68
2020/12/30 15:22:40;;;;;;;5.80;4.10;;;8.80;38.50;;;;;;10452413;28;20579;-68
2020/12/30 15:27:42;;;;;;;4.83;4.33;;;8.80;38.30;;;;;;10450634;28;20233;-68
2020/12/30 15:32:44;;;;;;;5.40;4.80;;;8.70;38.10;;;;;;10463128;28;20240;-68
2020/12/30 15:37:47;;;;;;;8.60;6.20;;;8.60;38.10;;;;;;10453006;28;20236;-68
2020/12/30 15:42:50;;;;;;;5.70;4.80;;;8.50;38.00;;;;;;10462972;28;20216;-69
2020/12/30 15:47:52;;;;;;;7.80;5.27;;;8.40;38.00;;;;;;10454880;28;20727;-68
2020/12/30 15:52:55;;;;;;;5.80;5.03;;;8.40;38.10;;;;;;10450181;28;20277;-68
2020/12/30 15:57:57;;;;;;;5.20;4.70;;;8.30;37.90;;;;;;10455396;28;20221;-69
2020/12/30 16:02:59;;;;;;;6.07;5.23;;;8.20;38.10;;;;;;10450205;28;20224;-69
2020/12/30 16:08:03;;;;;;;5.13;4.47;;;8.10;38.00;;;;;;10453441;28;20217;-73
2020/12/30 16:13:05;;;;;;;5.90;4.13;;;8.00;37.60;;;;;;10453228;28;20327;-74
2020/12/30 16:18:08;;;;;;;4.00;3.60;;;7.80;37.60;;;;;;10452650;28;20227;-74
2020/12/30 16:23:11;;;;;;;5.30;4.80;;;7.70;37.90;;;;;;10461576;28;20251;-73
2020/12/30 16:28:13;;;;;;;7.37;5.87;;;7.50;38.00;;;;;;10447893;28;20304;-73
2020/12/30 16:33:15;;;;;;;9.03;8.23;;;7.40;38.40;;;;;;10451745;28;20245;-73
2020/12/30 16:38:20;;;;;;;7.77;7.07;;;7.40;38.60;;;;;;10453173;28;20225;-74
2020/12/30 16:43:22;;;;;;;15.40;12.67;;;7.30;38.40;;;;;;10451002;28;20235;-73
2020/12/30 16:48:24;;;;;;;11.87;10.30;;;7.30;38.30;;;;;;10454755;28;20229;-73
2020/12/30 16:53:27;;;;;;;17.47;15.13;;;7.10;38.50;;;;;;10449144;28;20742;-73
2020/12/30 16:58:30;;;;;;;16.60;14.43;;;7.00;38.40;;;;;;10451741;28;20617;-74
2020/12/30 17:03:32;;;;;;;17.00;15.40;;;6.90;38.30;;;;;;10453797;28;20228;-73
2020/12/30 17:08:35;;;;;;;12.63;11.37;;;6.80;38.30;;;;;;10451966;28;20629;-74
2020/12/30 17:13:38;;;;;;;12.00;10.13;;;6.80;38.70;;;;;;10461167;28;20228;-74
2020/12/30 17:18:40;;;;;;;9.23;7.50;;;6.80;38.80;;;;;;10446942;28;20229;-74
2020/12/30 17:23:44;;;;;;;7.83;7.13;;;6.90;38.90;;;;;;10449064;28;20228;-75
2020/12/30 17:28:46;;;;;;;9.33;8.20;;;6.90;39.00;;;;;;10454843;28;20236;-74
2020/12/30 17:33:48;;;;;;;8.10;7.30;;;6.90;38.80;;;;;;10448581;28;20236;-74
2020/12/30 17:38:51;;;;;;;6.97;6.27;;;6.80;38.80;;;;;;10458187;28;20229;-74
2020/12/30 17:43:54;;;;;;;7.80;6.87;;;6.80;38.90;;;;;;10454714;28;20316;-75
2020/12/30 17:48:56;;;;;;;9.13;7.83;;;6.80;39.00;;;;;;10454722;28;20240;-74
2020/12/30 17:53:59;;;;;;;8.30;7.27;;;6.70;38.80;;;;;;10457276;28;20591;-74
2020/12/30 17:59:01;;;;;;;8.10;7.27;;;6.70;38.80;;;;;;10459813;28;20607;-74
2020/12/30 18:04:03;;;;;;;7.83;6.50;;;6.60;38.90;;;;;;10442848;28;20228;-74
2020/12/30 18:09:06;;;;;;;9.90;8.87;;;6.50;39.10;;;;;;10435223;28;20252;-74
2020/12/30 18:14:08;;;;;;;14.20;12.70;;;6.50;39.30;;;;;;10455667;28;20228;-74
2020/12/30 18:19:11;;;;;;;70.77;50.37;;;6.50;39.30;;;;;;10460215;28;20672;-74
2020/12/30 18:24:14;;;;;;;101.00;78.33;;;6.50;39.30;;;;;;10459317;28;20232;-74
2020/12/30 18:29:16;;;;;;;51.03;45.63;;;6.40;39.30;;;;;;10466969;28;20229;-74
2020/12/30 18:34:18;;;;;;;25.40;20.87;;;6.40;39.30;;;;;;10462666;28;20239;-74
2020/12/30 18:39:21;;;;;;;14.57;12.00;;;6.30;39.50;;;;;;10452905;28;20672;-74
2020/12/30 18:44:25;;;;;;;10.70;9.40;;;6.10;39.50;;;;;;10456950;28;20708;-74
2020/12/30 18:49:27;;;;;;;9.10;8.17;;;6.10;39.70;;;;;;10454368;28;20763;-74
2020/12/30 18:54:30;;;;;;;9.87;7.80;;;6.10;39.70;;;;;;10452914;28;20228;-74
2020/12/30 18:59:32;;;;;;;7.60;6.80;;;6.00;39.90;;;;;;10463625;28;20720;-74
2020/12/30 19:04:34;;;;;;;8.00;7.20;;;6.00;39.90;;;;;;10453530;28;20228;-74
2020/12/30 19:09:37;;;;;;;6.23;5.63;;;6.00;40.10;;;;;;10451956;28;20228;-75
2020/12/30 19:14:39;;;;;;;5.70;5.10;;;6.00;40.20;;;;;;10454493;28;20420;-74
2020/12/30 19:19:42;;;;;;;5.67;4.93;;;6.00;40.20;;;;;;10454173;28;20607;-74
2020/12/30 19:24:45;;;;;;;5.97;5.47;;;6.00;40.40;;;;;;10460825;28;20256;-74
2020/12/30 19:29:47;;;;;;;5.87;5.20;;;6.00;40.50;;;;;;10450364;28;20731;-68
2020/12/30 19:34:49;;;;;;;6.60;5.90;;;6.00;40.40;;;;;;10460936;28;20224;-68
2020/12/30 19:39:53;;;;;;;7.43;6.27;;;6.00;40.30;;;;;;10464895;28;20221;-68
2020/12/30 19:44:55;;;;;;;8.83;6.80;;;6.10;40.40;;;;;;10453149;28;20229;-68
2020/12/30 19:49:57;;;;;;;6.87;6.17;;;6.10;40.20;;;;;;10451238;28;20232;-68
2020/12/30 19:55:01;;;;;;;6.20;5.60;;;6.10;40.20;;;;;;10459548;28;20622;-68
2020/12/30 20:00:04;;;;;;;6.63;5.70;;;6.10;40.30;;;;;;10451628;28;20213;-69
2020/12/30 20:05:07;;;;;;;5.83;5.23;;;6.10;40.30;;;;;;10437552;28;20255;-69
2020/12/30 20:10:10;;;;;;;7.20;6.47;;;6.10;40.30;;;;;;10462272;28;20232;-69
2020/12/30 20:15:15;;;;;;;8.13;5.70;;;6.10;40.40;;;;;;10455929;28;20236;-68
2020/12/30 20:20:17;;;;;;;5.63;5.07;;;6.10;40.40;;;;;;10461104;28;20595;-68
2020/12/30 20:25:20;;;;;;;8.47;6.50;;;6.10;40.40;;;;;;10450715;28;20232;-68
2020/12/30 20:30:23;;;;;;;6.20;5.60;;;6.10;40.50;;;;;;10455272;28;20240;-68
2020/12/30 20:35:25;;;;;;;6.17;5.67;;;6.20;40.30;;;;;;10450512;28;20233;-68
2020/12/30 20:40:28;;;;;;;6.23;5.60;;;6.20;40.40;;;;;;10457069;28;20221;-68
2020/12/30 20:45:30;;;;;;;6.30;5.70;;;6.10;40.40;;;;;;10460934;28;20685;-68
2020/12/30 20:50:33;;;;;;;6.03;5.43;;;6.10;40.50;;;;;;10454622;28;20228;-68
2020/12/30 20:55:36;;;;;;;9.17;8.30;;;6.10;40.50;;;;;;10459281;28;20238;-68
2020/12/30 21:00:39;;;;;;;7.43;6.73;;;6.10;40.60;;;;;;10447693;28;20255;-68
2020/12/30 21:05:41;;;;;;;6.60;6.00;;;6.10;40.60;;;;;;10467329;28;20251;-68
2020/12/30 21:10:44;;;;;;;6.47;5.70;;;6.10;40.60;;;;;;10454181;28;20727;-68
2020/12/30 21:15:47;;;;;;;6.00;5.40;;;6.10;40.60;;;;;;10467233;28;20225;-66
2020/12/30 21:20:50;;;;;;;5.93;5.43;;;6.20;40.70;;;;;;10458858;28;20585;-66
2020/12/30 21:25:53;;;;;;;5.97;5.40;;;6.20;40.80;;;;;;10459318;28;20230;-66
2020/12/30 21:30:56;;;;;;;6.40;5.83;;;6.30;40.90;;;;;;10459255;28;20336;-66
2020/12/30 21:35:58;;;;;;;8.00;7.20;;;6.40;40.60;;;;;;10467375;28;20445;-66
2020/12/30 21:41:02;;;;;;;7.43;6.73;;;6.40;40.40;;;;;;10459269;28;20308;-66
2020/12/30 21:46:08;;;;;;;6.50;5.90;;;6.50;40.50;;;;;;10438433;28;20221;-67
2020/12/30 21:51:14;;;;;;;6.67;6.07;;;6.50;40.60;;;;;;10442582;28;20229;-67
2020/12/30 21:56:17;;;;;;;6.70;6.10;;;6.40;40.40;;;;;;10459128;28;20220;-67
2020/12/30 22:01:19;;;;;;;7.63;6.90;;;6.40;40.40;;;;;;10461644;28;20318;-67
2020/12/30 22:06:21;;;;;;;6.73;6.03;;;6.40;40.30;;;;;;10464476;28;20431;-66
2020/12/30 22:11:24;;;;;;;6.40;5.80;;;6.40;40.40;;;;;;10455079;28;20575;-66
2020/12/30 22:16:27;;;;;;;6.50;5.90;;;6.40;40.60;;;;;;10456759;28;20332;-72
2020/12/30 22:21:30;;;;;;;6.50;5.87;;;6.40;40.50;;;;;;10454876;28;20229;-72
2020/12/30 22:26:33;;;;;;;5.93;5.43;;;6.40;40.50;;;;;;10473101;28;20759;-72
2020/12/30 22:31:35;;;;;;;6.10;5.60;;;6.50;41.30;;;;;;10458750;28;20224;-71
2020/12/30 22:36:37;;;;;;;6.27;5.60;;;6.50;40.60;;;;;;10460705;28;20232;-72
2020/12/30 22:41:40;;;;;;;6.00;5.40;;;6.50;40.50;;;;;;10456688;28;20240;-72
2020/12/30 22:46:43;;;;;;;5.33;4.83;;;6.60;40.60;;;;;;10456265;28;20717;-72
2020/12/30 22:51:45;;;;;;;7.57;6.77;;;6.60;40.40;;;;;;10454141;28;20229;-72
2020/12/30 22:56:48;;;;;;;6.53;5.67;;;6.60;40.40;;;;;;10468703;28;20705;-72
2020/12/30 23:01:52;;;;;;;5.30;4.80;;;6.50;40.50;;;;;;10456256;28;20576;-72
2020/12/30 23:06:54;;;;;;;4.63;4.17;;;6.50;40.60;;;;;;10458522;28;20243;-72
2020/12/30 23:11:57;;;;;;;4.70;4.20;;;6.50;40.40;;;;;;10457456;28;20225;-72
2020/12/30 23:16:59;;;;;;;4.27;3.63;;;6.50;40.40;;;;;;10464892;28;20654;-72
2020/12/30 23:22:01;;;;;;;4.13;3.83;;;6.50;40.30;;;;;;10437009;28;20225;-71
2020/12/30 23:27:05;;;;;;;3.57;3.30;;;6.50;40.30;;;;;;10448879;28;20315;-72
2020/12/30 23:32:08;;;;;;;3.37;3.07;;;6.50;40.40;;;;;;10466744;28;20263;-72
2020/12/30 23:37:11;;;;;;;2.90;2.70;;;6.40;40.30;;;;;;10459321;28;20740;-73
2020/12/30 23:42:16;;;;;;;3.30;3.00;;;6.40;40.20;;;;;;10460171;28;20225;-73
2020/12/30 23:47:25;;;;;;;3.10;2.73;;;6.40;40.20;;;;;;10455999;28;20303;-73
2020/12/30 23:52:27;;;;;;;3.60;3.30;;;6.30;40.20;;;;;;10449416;28;20316;-73
2020/12/30 23:57:30;;;;;;;4.03;3.67;;;6.20;40.20;;;;;;10455147;28;20757;-73
